createdAt,value
2024-04-18T00:01:36.941Z,95888.44
2024-04-18T00:04:04.115Z,95901.66
2024-04-18T00:06:31.340Z,95894.81
2024-04-18T00:08:58.304Z,95893.53
2024-04-18T00:11:25.513Z,95892.91
2024-04-18T00:13:52.569Z,95890.31
2024-04-18T00:16:19.516Z,95899.91
2024-04-18T00:18:46.513Z,95899.28
2024-04-18T00:21:13.507Z,95895.16
2024-04-18T00:23:40.453Z,95889.72
2024-04-18T00:26:08.442Z,95890.16
2024-04-18T00:28:35.423Z,95899.56
2024-04-18T00:31:02.416Z,95887.19
2024-04-18T00:33:29.429Z,95882.09
2024-04-18T00:35:56.433Z,95887.13
2024-04-18T00:38:23.448Z,95888.91
2024-04-18T00:40:50.432Z,95884.19
2024-04-18T00:43:21.510Z,95883.00
2024-04-18T00:45:49.079Z,95872.69
2024-04-18T00:48:16.794Z,95873.72
2024-04-18T00:50:44.275Z,95880.81
2024-04-18T00:53:11.501Z,95881.97
2024-04-18T00:55:41.927Z,95882.53
2024-04-18T00:58:13.046Z,95889.41
2024-04-18T01:00:41.892Z,95890.84
2024-04-18T01:03:08.918Z,95886.81
2024-04-18T01:05:37.037Z,95888.53
2024-04-18T01:08:05.031Z,95888.94
2024-04-18T01:10:31.998Z,95896.88
2024-04-18T01:13:02.741Z,95882.41
2024-04-18T01:15:30.152Z,95881.72
2024-04-18T01:17:57.348Z,95888.50
2024-04-18T01:20:26.444Z,95889.94
2024-04-18T01:22:53.460Z,95884.88
2024-04-18T01:25:20.601Z,95890.06
2024-04-18T01:27:47.772Z,95881.28
2024-04-18T01:30:14.909Z,95885.56
2024-04-18T01:32:42.097Z,95894.22
2024-04-18T01:35:09.325Z,95892.72
2024-04-18T01:37:36.320Z,95889.47
2024-04-18T01:40:03.488Z,95894.34
2024-04-18T01:42:30.502Z,95886.94
2024-04-18T01:44:57.489Z,95895.72
2024-04-18T01:47:24.455Z,95890.97
2024-04-18T01:49:51.524Z,95889.66
2024-04-18T01:52:18.499Z,95894.78
2024-04-18T01:54:45.826Z,95894.09
2024-04-18T01:57:12.891Z,95899.19
2024-04-18T01:59:39.862Z,95900.50
2024-04-18T02:02:06.851Z,95897.81
2024-04-18T02:04:33.918Z,95904.31
2024-04-18T02:07:01.279Z,95904.28
2024-04-18T02:09:28.290Z,95909.75
2024-04-18T02:11:55.377Z,95908.25
2024-04-18T02:14:22.358Z,95907.38
2024-04-18T02:16:49.390Z,95904.09
2024-04-18T02:19:16.447Z,95901.75
2024-04-18T02:21:43.574Z,95911.47
2024-04-18T02:24:10.555Z,95906.53
2024-04-18T02:26:37.539Z,95911.03
2024-04-18T02:29:04.564Z,95911.69
2024-04-18T02:31:31.673Z,95913.66
2024-04-18T02:33:58.690Z,95907.13
2024-04-18T02:36:25.756Z,95906.53
2024-04-18T02:38:52.920Z,95910.13
2024-04-18T02:41:20.134Z,95902.69
2024-04-18T02:43:49.526Z,95905.94
2024-04-18T02:46:16.507Z,95918.25
2024-04-18T02:48:43.515Z,95915.66
2024-04-18T02:51:10.693Z,95911.94
2024-04-18T02:53:37.663Z,95915.53
2024-04-18T02:56:05.161Z,95916.34
2024-04-18T02:58:32.448Z,95913.09
2024-04-18T03:01:04.899Z,95911.13
2024-04-18T03:03:32.102Z,95917.59
2024-04-18T03:06:05.709Z,95914.03
2024-04-18T03:08:32.907Z,95918.97
2024-04-18T03:10:59.898Z,95914.22
2024-04-18T03:13:26.844Z,95917.44
2024-04-18T03:15:53.943Z,95918.38
2024-04-18T03:18:21.027Z,95914.06
2024-04-18T03:20:54.501Z,95916.69
2024-04-18T03:23:21.506Z,95912.16
2024-04-18T03:25:50.892Z,95918.09
2024-04-18T03:28:17.868Z,95911.44
2024-04-18T03:30:45.000Z,95922.88
2024-04-18T03:33:12.151Z,95914.69
2024-04-18T03:35:40.212Z,95927.34
2024-04-18T03:38:07.616Z,95926.88
2024-04-18T03:40:35.527Z,95929.28
2024-04-18T03:43:02.687Z,95924.16
2024-04-18T03:45:30.256Z,95927.66
2024-04-18T03:47:57.366Z,95929.78
2024-04-18T03:50:24.398Z,95929.53
2024-04-18T03:52:51.353Z,95934.41
2024-04-18T03:55:18.415Z,95930.13
2024-04-18T03:57:45.499Z,95936.03
2024-04-18T04:00:13.001Z,95939.88
2024-04-18T04:02:40.536Z,95945.88
2024-04-18T04:05:07.768Z,95941.59
2024-04-18T04:07:34.742Z,95947.97
2024-04-18T04:10:01.781Z,95943.63
2024-04-18T04:12:28.812Z,95945.28
2024-04-18T04:14:55.853Z,95949.00
2024-04-18T04:17:22.850Z,95950.34
2024-04-18T04:19:49.821Z,95956.66
2024-04-18T04:22:17.326Z,95963.72
2024-04-18T04:24:44.430Z,95968.69
2024-04-18T04:27:11.422Z,95960.81
2024-04-18T04:29:38.564Z,95952.38
2024-04-18T04:32:05.620Z,95967.34
2024-04-18T04:34:32.581Z,95970.19
2024-04-18T04:36:59.603Z,95967.19
2024-04-18T04:39:26.619Z,95971.47
2024-04-18T04:41:53.629Z,95977.38
2024-04-18T04:44:20.623Z,95973.44
2024-04-18T04:46:47.587Z,95983.91
2024-04-18T04:49:14.696Z,95976.41
2024-04-18T04:51:41.761Z,95976.44
2024-04-18T04:54:08.797Z,95984.25
2024-04-18T04:56:35.742Z,95987.50
2024-04-18T04:59:02.719Z,95989.97
2024-04-18T05:01:29.756Z,95996.97
2024-04-18T05:03:56.824Z,95989.25
2024-04-18T05:06:24.887Z,95993.09
2024-04-18T05:08:52.031Z,95997.50
2024-04-18T05:11:19.052Z,96007.50
2024-04-18T05:13:46.050Z,96003.72
2024-04-18T05:16:13.085Z,96011.13
2024-04-18T05:18:40.432Z,96008.44
2024-04-18T05:21:07.461Z,96006.00
2024-04-18T05:23:34.614Z,96013.66
2024-04-18T05:26:01.619Z,96015.25
2024-04-18T05:28:41.629Z,96015.06
2024-04-18T05:31:09.352Z,96024.09
2024-04-18T05:33:36.496Z,96020.13
2024-04-18T05:36:05.485Z,96012.22
2024-04-18T05:38:32.521Z,96020.31
2024-04-18T05:40:59.551Z,96024.63
2024-04-18T05:43:26.617Z,96029.84
2024-04-18T05:45:54.830Z,96030.19
2024-04-18T05:48:21.997Z,96034.97
2024-04-18T05:50:49.002Z,96032.38
2024-04-18T05:53:15.989Z,96040.81
2024-04-18T05:55:42.972Z,96041.44
2024-04-18T05:58:10.277Z,96040.47
2024-04-18T06:00:37.606Z,96044.59
2024-04-18T06:03:06.147Z,96046.22
2024-04-18T06:05:33.206Z,96046.41
2024-04-18T06:08:00.159Z,96047.53
2024-04-18T06:10:27.183Z,96055.06
2024-04-18T06:12:54.172Z,96052.03
2024-04-18T06:15:21.219Z,96056.13
2024-04-18T06:17:48.270Z,96067.06
2024-04-18T06:20:15.431Z,96061.84
2024-04-18T06:22:42.440Z,96062.22
2024-04-18T06:25:10.430Z,96063.81
2024-04-18T06:27:37.466Z,96061.63
2024-04-18T06:30:05.015Z,96064.81
2024-04-18T06:32:32.170Z,96072.19
2024-04-18T06:34:59.178Z,96063.63
2024-04-18T06:37:27.174Z,96075.16
2024-04-18T06:39:54.332Z,96080.09
2024-04-18T06:42:21.564Z,96074.56
2024-04-18T06:44:48.582Z,96085.91
2024-04-18T06:47:15.711Z,96083.03
2024-04-18T06:49:42.738Z,96085.16
2024-04-18T06:52:09.750Z,96092.63
2024-04-18T06:54:36.768Z,96094.72
2024-04-18T06:57:03.939Z,96097.00
2024-04-18T06:59:30.970Z,96101.03
2024-04-18T07:01:57.943Z,96103.00
2024-04-18T07:04:24.987Z,96099.41
2024-04-18T07:06:52.080Z,96100.63
2024-04-18T07:09:19.460Z,96102.81
2024-04-18T07:11:46.487Z,96104.78
2024-04-18T07:14:13.583Z,96106.97
2024-04-18T07:16:40.793Z,96112.53
2024-04-18T07:19:07.790Z,96116.69
2024-04-18T07:21:34.838Z,96108.38
2024-04-18T07:24:02.203Z,96120.63
2024-04-18T07:26:29.370Z,96121.06
2024-04-18T07:28:56.328Z,96118.84
2024-04-18T07:31:23.343Z,96116.88
2024-04-18T07:33:50.383Z,96124.75
2024-04-18T07:36:22.502Z,96129.50
2024-04-18T07:38:53.147Z,96130.09
2024-04-18T07:41:20.329Z,96133.38
2024-04-18T07:43:47.285Z,96133.88
2024-04-18T07:46:15.191Z,96133.28
2024-04-18T07:48:42.435Z,96137.78
2024-04-18T07:51:09.470Z,96145.13
2024-04-18T07:53:36.906Z,96138.75
2024-04-18T07:56:05.845Z,96143.91
2024-04-18T07:58:33.397Z,96147.50
2024-04-18T08:01:02.186Z,96154.72
2024-04-18T08:03:31.651Z,96161.81
2024-04-18T08:06:02.266Z,96166.53
2024-04-18T08:08:34.530Z,96162.78
2024-04-18T08:11:25.812Z,96174.34
2024-04-18T08:13:54.685Z,96169.19
2024-04-18T08:16:24.543Z,96171.03
2024-04-18T08:18:51.627Z,96171.41
2024-04-18T08:21:18.664Z,96177.91
2024-04-18T08:23:52.564Z,96179.13
2024-04-18T08:26:19.715Z,96184.25
2024-04-18T08:28:46.688Z,96178.59
2024-04-18T08:31:13.663Z,96178.47
2024-04-18T08:33:46.732Z,96177.13
2024-04-18T08:36:17.942Z,96178.22
2024-04-18T08:38:44.982Z,96187.50
2024-04-18T08:41:14.326Z,96189.88
2024-04-18T08:43:43.541Z,96189.28
2024-04-18T08:46:12.998Z,96190.16
2024-04-18T08:48:40.490Z,96191.78
2024-04-18T08:51:08.931Z,96198.03
2024-04-18T08:53:36.101Z,96191.38
2024-04-18T08:56:10.391Z,96197.66
2024-04-18T08:58:37.847Z,96189.88
2024-04-18T09:01:04.896Z,96202.38
2024-04-18T09:03:34.646Z,96193.50
2024-04-18T09:06:03.537Z,96198.03
2024-04-18T09:08:30.584Z,96187.13
2024-04-18T09:11:00.414Z,96204.31
2024-04-18T09:13:27.425Z,96191.16
2024-04-18T09:15:54.377Z,96193.13
2024-04-18T09:18:21.557Z,96198.34
2024-04-18T09:20:49.505Z,96193.94
2024-04-18T09:23:17.548Z,96195.06
2024-04-18T09:25:45.924Z,96200.94
2024-04-18T09:28:13.108Z,96206.31
2024-04-18T09:30:40.733Z,96213.63
2024-04-18T09:33:09.006Z,96226.03
2024-04-18T09:35:37.079Z,96227.38
2024-04-18T09:38:10.222Z,96234.16
2024-04-18T09:40:45.711Z,96221.41
2024-04-18T09:43:32.812Z,96230.69
2024-04-18T09:46:07.105Z,96233.16
2024-04-18T09:48:34.483Z,96241.56
2024-04-18T09:51:04.281Z,96239.56
2024-04-18T09:53:31.519Z,96242.69
2024-04-18T09:56:01.637Z,96239.56
2024-04-18T09:58:29.513Z,96230.59
2024-04-18T10:00:59.991Z,96237.16
2024-04-18T10:03:29.276Z,96235.13
2024-04-18T10:06:00.896Z,96231.19
2024-04-18T10:08:51.917Z,96231.22
2024-04-18T10:11:25.844Z,96226.31
2024-04-18T10:13:53.103Z,96231.63
2024-04-18T10:16:21.218Z,96229.16
2024-04-18T10:18:51.500Z,96226.06
2024-04-18T10:21:32.196Z,96213.81
2024-04-18T10:24:06.847Z,96218.91
2024-04-18T10:26:36.728Z,96219.63
2024-04-18T10:29:03.796Z,96215.66
2024-04-18T10:31:31.064Z,96216.81
2024-04-18T10:33:58.888Z,96222.34
2024-04-18T10:36:27.509Z,96223.72
2024-04-18T10:38:54.822Z,96231.22
2024-04-18T10:41:25.567Z,96226.72
2024-04-18T10:43:52.903Z,96219.94
2024-04-18T10:46:20.728Z,96228.16
2024-04-18T10:48:54.996Z,96230.13
2024-04-18T10:51:22.268Z,96234.34
2024-04-18T10:53:49.295Z,96231.94
2024-04-18T10:56:16.550Z,96237.63
2024-04-18T10:58:43.823Z,96229.81
2024-04-18T11:01:10.840Z,96242.44
2024-04-18T11:03:38.023Z,96238.50
2024-04-18T11:06:05.242Z,96243.97
2024-04-18T11:08:35.131Z,96235.94
2024-04-18T11:11:04.724Z,96236.84
2024-04-18T11:13:31.886Z,96242.03
2024-04-18T11:15:59.000Z,96240.19
2024-04-18T11:18:26.298Z,96239.81
2024-04-18T11:20:54.011Z,96240.41
2024-04-18T11:23:35.289Z,96243.94
2024-04-18T11:26:14.271Z,96239.47
2024-04-18T11:28:41.652Z,96237.16
2024-04-18T11:31:08.680Z,96230.00
2024-04-18T11:33:36.392Z,96245.69
2024-04-18T11:36:03.828Z,96240.00
2024-04-18T11:38:32.780Z,96239.91
2024-04-18T11:41:01.503Z,96240.47
2024-04-18T11:43:28.584Z,96246.91
2024-04-18T11:45:55.979Z,96231.25
2024-04-18T11:48:23.123Z,96239.63
2024-04-18T11:50:50.246Z,96236.56
2024-04-18T11:53:17.242Z,96232.63
2024-04-18T11:55:44.208Z,96236.16
2024-04-18T11:58:11.185Z,96236.69
2024-04-18T12:00:38.260Z,96227.59
2024-04-18T12:03:07.166Z,96226.66
2024-04-18T12:05:34.189Z,96239.69
2024-04-18T12:08:01.221Z,96235.81
2024-04-18T12:10:28.220Z,96241.69
2024-04-18T12:12:55.353Z,96242.59
2024-04-18T12:15:22.354Z,96246.69
2024-04-18T12:17:49.435Z,96246.50
2024-04-18T12:20:20.612Z,96251.22
2024-04-18T12:22:47.758Z,96249.44
2024-04-18T12:25:18.785Z,96253.47
2024-04-18T12:27:47.006Z,96248.13
2024-04-18T12:30:14.050Z,96251.91
2024-04-18T12:32:41.098Z,96251.22
2024-04-18T12:35:09.244Z,96249.75
2024-04-18T12:37:36.265Z,96258.38
2024-04-18T12:40:06.361Z,96253.56
2024-04-18T12:42:35.221Z,96255.94
2024-04-18T12:45:02.465Z,96247.66
2024-04-18T12:47:29.732Z,96251.66
2024-04-18T12:49:56.993Z,96248.88
2024-04-18T12:52:24.084Z,96240.03
2024-04-18T12:54:51.125Z,96242.16
2024-04-18T12:57:18.199Z,96242.72
2024-04-18T12:59:45.211Z,96243.97
2024-04-18T13:02:13.193Z,96240.59
2024-04-18T13:04:41.048Z,96239.66
2024-04-18T13:07:08.141Z,96243.66
2024-04-18T13:09:35.278Z,96233.53
2024-04-18T13:12:04.184Z,96232.06
2024-04-18T13:14:31.430Z,96238.31
2024-04-18T13:16:58.597Z,96252.59
2024-04-18T13:19:25.624Z,96260.41
2024-04-18T13:21:52.605Z,96273.19
2024-04-18T13:24:21.196Z,96278.56
2024-04-18T13:26:48.204Z,96282.09
2024-04-18T13:29:15.214Z,96278.97
2024-04-18T13:31:42.339Z,96279.31
2024-04-18T13:34:09.683Z,96285.44
2024-04-18T13:36:37.445Z,96290.72
2024-04-18T13:39:04.595Z,96307.69
2024-04-18T13:41:31.739Z,96301.16
2024-04-18T13:43:58.698Z,96293.41
2024-04-18T13:46:25.727Z,96286.78
2024-04-18T13:48:52.853Z,96290.84
2024-04-18T13:51:20.375Z,96294.16
2024-04-18T13:53:47.535Z,96287.31
2024-04-18T13:56:14.538Z,96293.69
2024-04-18T13:58:41.586Z,96297.78
2024-04-18T14:01:08.575Z,96295.06
2024-04-18T14:03:35.850Z,96297.84
2024-04-18T14:06:03.131Z,96299.78
2024-04-18T14:08:30.425Z,96304.88
2024-04-18T14:10:57.380Z,96307.38
2024-04-18T14:13:24.530Z,96306.53
2024-04-18T14:16:14.021Z,96310.03
2024-04-18T14:18:49.813Z,96322.50
2024-04-18T14:21:17.803Z,96323.88
2024-04-18T14:23:45.385Z,96334.34
2024-04-18T14:26:12.377Z,96341.78
2024-04-18T14:28:39.539Z,96343.56
2024-04-18T14:31:06.551Z,96345.84
2024-04-18T14:33:33.746Z,96342.75
2024-04-18T14:36:00.975Z,96348.78
2024-04-18T14:38:29.759Z,96344.47
2024-04-18T14:41:05.568Z,96346.38
2024-04-18T14:43:38.219Z,96350.44
2024-04-18T14:46:05.365Z,96356.75
2024-04-18T14:48:34.648Z,96354.13
2024-04-18T14:51:01.868Z,96349.84
2024-04-18T14:53:28.942Z,96364.13
2024-04-18T14:55:57.108Z,96367.84
2024-04-18T14:58:24.200Z,96372.69
2024-04-18T15:00:53.044Z,96361.78
2024-04-18T15:03:20.875Z,96369.19
2024-04-18T15:05:56.405Z,96371.22
2024-04-18T15:08:25.091Z,96382.69
2024-04-18T15:10:52.392Z,96382.47
2024-04-18T15:13:19.454Z,96375.53
2024-04-18T15:15:46.520Z,96380.09
2024-04-18T15:18:14.750Z,96379.59
2024-04-18T15:20:42.139Z,96390.91
2024-04-18T15:23:12.544Z,96392.84
2024-04-18T15:25:39.492Z,96401.53
2024-04-18T15:28:07.003Z,96405.41
2024-04-18T15:30:34.248Z,96396.06
2024-04-18T15:33:01.319Z,96397.81
2024-04-18T15:35:28.326Z,96399.31
2024-04-18T15:37:55.323Z,96399.19
2024-04-18T15:40:22.284Z,96398.50
2024-04-18T15:42:49.304Z,96397.34
2024-04-18T15:45:16.452Z,96407.09
2024-04-18T15:47:43.581Z,96403.44
2024-04-18T15:50:10.670Z,96411.50
2024-04-18T15:52:39.684Z,96417.19
2024-04-18T15:55:16.043Z,96421.06
2024-04-18T15:57:48.711Z,96424.28
2024-04-18T16:00:16.068Z,96427.06
2024-04-18T16:02:44.810Z,96433.16
2024-04-18T16:05:12.961Z,96436.50
2024-04-18T16:07:39.934Z,96435.78
2024-04-18T16:10:09.058Z,96435.56
2024-04-18T16:12:36.370Z,96439.50
2024-04-18T16:15:05.799Z,96432.94
2024-04-18T16:17:33.814Z,96436.06
2024-04-18T16:20:00.986Z,96440.88
2024-04-18T16:22:29.461Z,96433.56
2024-04-18T16:24:56.456Z,96435.19
2024-04-18T16:27:23.590Z,96432.22
2024-04-18T16:29:50.611Z,96431.44
2024-04-18T16:32:17.598Z,96443.06
2024-04-18T16:34:44.584Z,96433.66
2024-04-18T16:37:14.129Z,96442.34
2024-04-18T16:39:43.468Z,96438.63
2024-04-18T16:42:10.573Z,96451.81
2024-04-18T16:44:37.633Z,96438.66
2024-04-18T16:47:05.033Z,96446.66
2024-04-18T16:49:32.028Z,96447.44
2024-04-18T16:51:59.262Z,96440.03
2024-04-18T16:54:26.375Z,96443.09
2024-04-18T16:56:53.677Z,96444.38
2024-04-18T16:59:21.493Z,96446.97
2024-04-18T17:01:48.515Z,96459.81
2024-04-18T17:04:15.613Z,96466.53
2024-04-18T17:06:48.062Z,96460.41
2024-04-18T17:09:17.596Z,96470.72
2024-04-18T17:11:44.964Z,96471.28
2024-04-18T17:14:12.043Z,96479.25
2024-04-18T17:16:39.682Z,96474.78
2024-04-18T17:19:06.834Z,96476.03
2024-04-18T17:21:36.399Z,96485.63
2024-04-18T17:24:03.917Z,96482.97
2024-04-18T17:26:30.995Z,96489.88
2024-04-18T17:28:58.177Z,96492.97
2024-04-18T17:31:25.254Z,96500.00
2024-04-18T17:33:54.948Z,96499.47
2024-04-18T17:36:22.528Z,96505.91
2024-04-18T17:38:50.808Z,96509.44
2024-04-18T17:41:17.876Z,96509.22
2024-04-18T17:43:47.130Z,96506.69
2024-04-18T17:46:14.466Z,96514.38
2024-04-18T17:48:43.858Z,96511.72
2024-04-18T17:51:11.191Z,96517.69
2024-04-18T17:53:38.292Z,96521.63
2024-04-18T17:56:05.766Z,96524.69
2024-04-18T17:58:32.900Z,96511.66
2024-04-18T18:00:59.941Z,96526.34
2024-04-18T18:03:27.018Z,96531.81
2024-04-18T18:05:54.109Z,96538.56
2024-04-18T18:08:21.066Z,96545.59
2024-04-18T18:10:48.140Z,96544.13
2024-04-18T18:13:15.094Z,96550.53
2024-04-18T18:15:42.138Z,96551.22
2024-04-18T18:18:10.026Z,96557.28
2024-04-18T18:20:37.246Z,96563.19
2024-04-18T18:23:04.500Z,96557.84
2024-04-18T18:25:31.475Z,96564.56
2024-04-18T18:27:58.456Z,96571.28
2024-04-18T18:30:26.038Z,96574.91
2024-04-18T18:32:53.242Z,96572.31
2024-04-18T18:35:20.249Z,96575.91
2024-04-18T18:37:49.486Z,96587.34
2024-04-18T18:40:16.602Z,96597.34
2024-04-18T18:42:45.485Z,96600.28
2024-04-18T18:45:12.656Z,96597.84
2024-04-18T18:47:39.826Z,96601.47
2024-04-18T18:50:07.915Z,96605.06
2024-04-18T18:52:34.959Z,96609.78
2024-04-18T18:55:01.979Z,96612.75
2024-04-18T18:57:30.070Z,96610.78
2024-04-18T18:59:57.245Z,96615.19
2024-04-18T19:02:25.090Z,96610.97
2024-04-18T19:04:52.172Z,96623.97
2024-04-18T19:07:19.226Z,96620.38
2024-04-18T19:09:46.343Z,96625.47
2024-04-18T19:12:13.564Z,96630.16
2024-04-18T19:14:40.583Z,96627.56
2024-04-18T19:17:07.822Z,96623.63
2024-04-18T19:19:35.132Z,96618.41
2024-04-18T19:22:03.982Z,96624.94
2024-04-18T19:24:31.115Z,96623.66
2024-04-18T19:27:01.619Z,96618.56
2024-04-18T19:29:39.647Z,96617.91
2024-04-18T19:32:14.213Z,96620.06
2024-04-18T19:34:41.408Z,96612.38
2024-04-18T19:37:08.451Z,96618.81
2024-04-18T19:39:35.624Z,96621.94
2024-04-18T19:42:02.835Z,96619.16
2024-04-18T19:44:31.463Z,96629.94
2024-04-18T19:46:58.820Z,96631.56
2024-04-18T19:49:28.308Z,96625.72
2024-04-18T19:52:01.546Z,96634.53
2024-04-18T19:54:31.096Z,96644.19
2024-04-18T19:56:58.160Z,96640.56
2024-04-18T19:59:25.195Z,96640.41
2024-04-18T20:01:52.150Z,96648.91
2024-04-18T20:04:19.439Z,96642.72
2024-04-18T20:06:46.616Z,96639.78
2024-04-18T20:09:13.680Z,96635.22
2024-04-18T20:11:40.791Z,96640.75
2024-04-18T20:14:07.822Z,96643.84
2024-04-18T20:16:35.275Z,96643.72
2024-04-18T20:19:02.557Z,96641.91
2024-04-18T20:21:29.796Z,96648.91
2024-04-18T20:23:56.754Z,96645.81
2024-04-18T20:26:23.759Z,96647.91
2024-04-18T20:28:51.647Z,96647.59
2024-04-18T20:31:18.684Z,96648.56
2024-04-18T20:33:45.979Z,96649.22
2024-04-18T20:36:13.054Z,96655.41
2024-04-18T20:38:40.072Z,96656.72
2024-04-18T20:41:07.042Z,96657.00
2024-04-18T20:43:34.018Z,96647.41
2024-04-18T20:46:01.081Z,96648.56
2024-04-18T20:48:28.218Z,96652.78
2024-04-18T20:50:55.292Z,96659.97
2024-04-18T20:53:22.346Z,96651.00
2024-04-18T20:55:49.317Z,96653.00
2024-04-18T20:58:16.380Z,96652.41
2024-04-18T21:00:46.825Z,96661.53
2024-04-18T21:03:13.962Z,96657.75
2024-04-18T21:05:47.388Z,96662.47
2024-04-18T21:08:14.887Z,96666.75
2024-04-18T21:10:42.941Z,96670.81
2024-04-18T21:13:13.810Z,96661.50
2024-04-18T21:15:41.197Z,96672.25
2024-04-18T21:18:08.725Z,96675.25
2024-04-18T21:20:36.235Z,96672.38
2024-04-18T21:23:03.240Z,96662.91
2024-04-18T21:25:30.286Z,96663.88
2024-04-18T21:27:57.281Z,96661.59
2024-04-18T21:30:24.255Z,96665.84
2024-04-18T21:32:54.281Z,96667.16
2024-04-18T21:35:21.609Z,96665.03
2024-04-18T21:37:48.611Z,96660.97
2024-04-18T21:40:15.771Z,96671.59
2024-04-18T21:42:42.843Z,96667.50
2024-04-18T21:45:09.996Z,96677.28
2024-04-18T21:47:37.177Z,96671.72
2024-04-18T21:50:04.653Z,96675.16
2024-04-18T21:52:31.639Z,96672.94
2024-04-18T21:54:58.658Z,96670.78
2024-04-18T21:57:26.018Z,96680.16
2024-04-18T21:59:53.273Z,96667.50
2024-04-18T22:02:20.317Z,96673.94
2024-04-18T22:04:48.217Z,96667.66
2024-04-18T22:07:15.191Z,96668.47
2024-04-18T22:09:42.220Z,96662.75
2024-04-18T22:12:09.639Z,96665.50
2024-04-18T22:14:36.667Z,96665.47
2024-04-18T22:17:03.702Z,96665.16
2024-04-18T22:19:30.776Z,96674.56
2024-04-18T22:21:57.826Z,96680.75
2024-04-18T22:24:24.853Z,96664.03
2024-04-18T22:26:51.854Z,96662.88
2024-04-18T22:29:18.805Z,96677.88
2024-04-18T22:31:45.750Z,96666.16
2024-04-18T22:34:24.423Z,96668.44
2024-04-18T22:36:55.316Z,96669.25
2024-04-18T22:39:22.410Z,96666.31
2024-04-18T22:41:49.459Z,96665.84
2024-04-18T22:44:16.445Z,96664.66
2024-04-18T22:46:43.427Z,96661.25
2024-04-18T22:49:10.454Z,96667.78
2024-04-18T22:51:37.452Z,96670.31
2024-04-18T22:54:04.568Z,96673.97
2024-04-18T22:56:31.586Z,96660.28
2024-04-18T22:58:58.559Z,96654.06
2024-04-18T23:01:25.675Z,96669.44
2024-04-18T23:03:52.778Z,96663.75
2024-04-18T23:06:20.413Z,96668.44
2024-04-18T23:08:47.401Z,96663.06
2024-04-18T23:11:14.967Z,96656.03
2024-04-18T23:13:42.087Z,96655.75
2024-04-18T23:16:09.297Z,96662.28
2024-04-18T23:18:36.566Z,96662.88
2024-04-18T23:21:03.875Z,96661.31
2024-04-18T23:23:30.845Z,96665.50
2024-04-18T23:25:57.785Z,96662.59
2024-04-18T23:28:24.756Z,96660.00
2024-04-18T23:30:51.954Z,96656.63
2024-04-18T23:33:19.038Z,96659.00
2024-04-18T23:35:46.331Z,96664.56
2024-04-18T23:38:13.448Z,96661.81
2024-04-18T23:40:40.398Z,96659.69
2024-04-18T23:43:07.376Z,96654.13
2024-04-18T23:45:34.817Z,96654.16
2024-04-18T23:48:02.043Z,96655.13
2024-04-18T23:50:29.040Z,96657.38
2024-04-18T23:52:56.025Z,96641.06
2024-04-18T23:55:23.055Z,96653.00
2024-04-18T23:57:50.070Z,96650.72
